Saginaw — VF2560 — position and weather

sailwx.info

Track history (hours):
 
Tides and Currents Weather Stations Pressure Air Temp Water Temp Dewpoint Dewpoint Depression Visibility Wind Speed Wind Dir Waves Ship Positions

Saginaw

Last reported at 2017-Dec-22 11:39 UTC. Time now 2018-Jan-21 04:58 UTC.
Position N 45°17' W 073°56'.
Warning: this ship's position is 29 days out of date.

Length 193 m; draft 5.9 m.

Type: Ship. MMSI: 316004950.

Date/timePositionNaut miles runAvg speedWind from/ knotsBaromVisibWave heightAir tempDewpointWater temp
2017-Dec-22 11:39N 45°17' W 073°56'1 6.2
2017-Dec-22 11:31N 45°18' W 073°56'0 0.3
2017-Dec-22 10:59N 45°18' W 073°56'1 1.6
2017-Dec-22 10:30N 45°19' W 073°55'0 0.5
2017-Dec-22 10:00N 45°19' W 073°55'3 6.5
2017-Dec-22 09:30N 45°21' W 073°51'611.2
2017-Dec-22 09:00N 45°24' W 073°45'4 7.1
2017-Dec-22 08:30N 45°25' W 073°40'  
2017-Dec-18 14:53N 45°27' W 073°30'5 1.2
2017-Dec-18 10:47N 45°24' W 073°36'1 3.0
2017-Dec-18 10:19N 45°24' W 073°38'2 4.8
2017-Dec-18 09:59N 45°25' W 073°40'3 5.7
2017-Dec-18 09:30N 45°24' W 073°44'5 9.3
2017-Dec-18 09:00N 45°22' W 073°50'4 7.6
2017-Dec-18 08:30N 45°20' W 073°54'0 0.1
2017-Dec-18 08:00N 45°20' W 073°54'0 0.0
2017-Dec-18 07:30N 45°20' W 073°54'0 0.0
2017-Dec-18 07:00N 45°20' W 073°54'0 0.0
2017-Dec-18 06:30N 45°20' W 073°54'0 0.0
2017-Dec-18 06:00N 45°20' W 073°54'0 0.0
2017-Dec-18 05:30N 45°20' W 073°54'0 0.0
2017-Dec-18 05:00N 45°20' W 073°54'0 0.0
2017-Dec-18 04:30N 45°20' W 073°54'0 0.0
2017-Dec-18 04:00N 45°20' W 073°54'0 0.0
2017-Dec-18 03:30N 45°20' W 073°54'0 0.0
2017-Dec-18 03:00N 45°20' W 073°54'0 0.0
2017-Dec-18 02:30N 45°20' W 073°54'0 0.0
2017-Dec-18 01:58N 45°20' W 073°54'0 0.0
2017-Dec-18 01:30N 45°20' W 073°54'0 0.0
2017-Dec-18 00:59N 45°20' W 073°54'0 0.0
2017-Dec-17 23:58N 45°20' W 073°54'0 0.0
2017-Dec-17 23:30N 45°20' W 073°54'0 0.0
2017-Dec-17 23:00N 45°20' W 073°54'0 0.0
2017-Dec-17 22:28N 45°20' W 073°54'0 0.0
2017-Dec-17 22:00N 45°20' W 073°54'0 0.0
2017-Dec-17 21:30N 45°20' W 073°54'0 0.0
2017-Dec-17 21:00N 45°20' W 073°54'0 0.0
2017-Dec-17 20:30N 45°20' W 073°54'0 0.0
2017-Dec-17 20:00N 45°20' W 073°54'0 0.0
2017-Dec-17 19:30N 45°20' W 073°54'1 1.4
2017-Dec-17 19:00N 45°20' W 073°55'1 1.2
2017-Dec-17 18:30N 45°19' W 073°55'1 1.5
2017-Dec-17 18:00N 45°18' W 073°56'1 2.2
2017-Dec-17 17:29N 45°17' W 073°56'5 8.2
2017-Dec-17 16:56N 45°14' W 074°01'  
Track history (hours):
 
Tides and Currents Weather Stations Pressure Air Temp Water Temp Dewpoint Dewpoint Depression Visibility Wind Speed Wind Dir Waves Ship Positions

Saginaw

Last reported at 2017-Dec-22 11:39 UTC. Time now 2018-Jan-21 04:58 UTC.
Position N 45°17' W 073°56'.
Warning: this ship's position is 29 days out of date.

Length 193 m; draft 5.9 m.

Type: Ship. MMSI: 316004950.

Date/timePositionNaut miles runAvg speedWind from/ knotsBaromVisibWave heightAir tempDewpointWater temp
2017-Dec-22 11:39N 45°17' W 073°56'1 6.2
2017-Dec-22 11:31N 45°18' W 073°56'0 0.3
2017-Dec-22 10:59N 45°18' W 073°56'1 1.6
2017-Dec-22 10:30N 45°19' W 073°55'0 0.5
2017-Dec-22 10:00N 45°19' W 073°55'3 6.5
2017-Dec-22 09:30N 45°21' W 073°51'611.2
2017-Dec-22 09:00N 45°24' W 073°45'4 7.1
2017-Dec-22 08:30N 45°25' W 073°40'  
2017-Dec-18 14:53N 45°27' W 073°30'5 1.2
2017-Dec-18 10:47N 45°24' W 073°36'1 3.0
2017-Dec-18 10:19N 45°24' W 073°38'2 4.8
2017-Dec-18 09:59N 45°25' W 073°40'3 5.7
2017-Dec-18 09:30N 45°24' W 073°44'5 9.3
2017-Dec-18 09:00N 45°22' W 073°50'4 7.6
2017-Dec-18 08:30N 45°20' W 073°54'0 0.1
2017-Dec-18 08:00N 45°20' W 073°54'0 0.0
2017-Dec-18 07:30N 45°20' W 073°54'0 0.0
2017-Dec-18 07:00N 45°20' W 073°54'0 0.0
2017-Dec-18 06:30N 45°20' W 073°54'0 0.0
2017-Dec-18 06:00N 45°20' W 073°54'0 0.0
2017-Dec-18 05:30N 45°20' W 073°54'0 0.0
2017-Dec-18 05:00N 45°20' W 073°54'0 0.0
2017-Dec-18 04:30N 45°20' W 073°54'0 0.0
2017-Dec-18 04:00N 45°20' W 073°54'0 0.0
2017-Dec-18 03:30N 45°20' W 073°54'0 0.0
2017-Dec-18 03:00N 45°20' W 073°54'0 0.0
2017-Dec-18 02:30N 45°20' W 073°54'0 0.0
2017-Dec-18 01:58N 45°20' W 073°54'0 0.0
2017-Dec-18 01:30N 45°20' W 073°54'0 0.0
2017-Dec-18 00:59N 45°20' W 073°54'0 0.0
2017-Dec-17 23:58N 45°20' W 073°54'0 0.0
2017-Dec-17 23:30N 45°20' W 073°54'0 0.0
2017-Dec-17 23:00N 45°20' W 073°54'0 0.0
2017-Dec-17 22:28N 45°20' W 073°54'0 0.0
2017-Dec-17 22:00N 45°20' W 073°54'0 0.0
2017-Dec-17 21:30N 45°20' W 073°54'0 0.0
2017-Dec-17 21:00N 45°20' W 073°54'0 0.0
2017-Dec-17 20:30N 45°20' W 073°54'0 0.0
2017-Dec-17 20:00N 45°20' W 073°54'0 0.0
2017-Dec-17 19:30N 45°20' W 073°54'1 1.4
2017-Dec-17 19:00N 45°20' W 073°55'1 1.2
2017-Dec-17 18:30N 45°19' W 073°55'1 1.5
2017-Dec-17 18:00N 45°18' W 073°56'1 2.2
2017-Dec-17 17:29N 45°17' W 073°56'5 8.2
2017-Dec-17 16:56N 45°14' W 074°01'  

Dump ship's entire track history